createdAt,value
2018-01-22T00:00:26.056Z,16.90
2018-01-22T00:02:53.648Z,18.70
2018-01-22T00:05:21.226Z,19.07
2018-01-22T00:07:48.813Z,17.00
2018-01-22T00:10:17.484Z,16.73
2018-01-22T00:12:45.078Z,16.63
2018-01-22T00:15:13.776Z,17.23
2018-01-22T00:17:41.342Z,16.77
2018-01-22T00:20:08.946Z,17.20
2018-01-22T00:22:36.535Z,17.40
2018-01-22T00:25:04.161Z,17.30
2018-01-22T00:27:31.694Z,17.10
2018-01-22T00:29:59.221Z,16.20
2018-01-22T00:32:26.814Z,17.03
2018-01-22T00:34:54.361Z,15.60
2018-01-22T00:37:21.916Z,16.70
2018-01-22T00:39:49.447Z,15.67
2018-01-22T00:42:17.784Z,16.20
2018-01-22T00:44:45.658Z,16.80
2018-01-22T00:47:13.209Z,15.53
2018-01-22T00:49:40.797Z,17.40
2018-01-22T00:52:10.426Z,15.80
2018-01-22T00:54:38.160Z,17.10
2018-01-22T00:57:05.956Z,16.10
2018-01-22T00:59:33.475Z,15.73
2018-01-22T01:02:01.035Z,15.00
2018-01-22T01:04:29.432Z,13.27
2018-01-22T01:06:56.984Z,15.30
2018-01-22T01:09:25.174Z,14.83
2018-01-22T01:11:52.803Z,17.50
2018-01-22T01:14:20.367Z,14.83
2018-01-22T01:16:47.967Z,14.20
2018-01-22T01:19:16.305Z,14.50
2018-01-22T01:21:43.901Z,15.10
2018-01-22T01:24:11.466Z,13.67
2018-01-22T01:26:39.850Z,13.90
2018-01-22T01:29:07.394Z,14.40
2018-01-22T01:31:35.710Z,15.03
2018-01-22T01:34:03.311Z,14.93
2018-01-22T01:36:30.846Z,13.30
2018-01-22T01:38:58.381Z,14.43
2018-01-22T01:41:25.972Z,12.90
2018-01-22T01:43:53.829Z,14.10
2018-01-22T01:46:22.009Z,13.50
2018-01-22T01:49:04.498Z,13.43
2018-01-22T01:51:33.459Z,13.07
2018-01-22T01:54:01.001Z,14.70
2018-01-22T01:56:29.346Z,13.43
2018-01-22T01:58:56.892Z,13.60
2018-01-22T02:01:24.413Z,13.60
2018-01-22T02:03:51.977Z,13.27
2018-01-22T02:06:19.545Z,14.03
2018-01-22T02:08:47.091Z,14.07
2018-01-22T02:11:16.024Z,13.90
2018-01-22T02:13:43.596Z,14.47
2018-01-22T02:16:11.174Z,13.97
2018-01-22T02:18:38.772Z,14.30
2018-01-22T02:21:07.140Z,14.93
2018-01-22T02:23:35.591Z,14.73
2018-01-22T02:26:04.459Z,16.23
2018-01-22T02:28:31.978Z,15.00
2018-01-22T02:31:00.307Z,16.67
2018-01-22T02:33:27.866Z,15.00
2018-01-22T02:35:55.411Z,16.23
2018-01-22T02:38:23.094Z,16.00
2018-01-22T02:40:50.632Z,16.40
2018-01-22T02:43:18.185Z,15.47
2018-01-22T02:45:46.014Z,15.03
2018-01-22T02:48:14.347Z,16.70
2018-01-22T02:50:42.479Z,16.20
2018-01-22T02:53:10.095Z,15.80
2018-01-22T02:55:37.696Z,15.73
2018-01-22T02:58:05.286Z,16.63
2018-01-22T03:00:33.157Z,15.67
2018-01-22T03:03:00.712Z,16.53
2018-01-22T03:05:28.326Z,15.50
2018-01-22T03:07:57.420Z,15.90
2018-01-22T03:10:25.751Z,15.13
2018-01-22T03:12:54.149Z,16.00
2018-01-22T03:15:21.673Z,15.30
2018-01-22T03:17:49.266Z,16.43
2018-01-22T03:20:16.827Z,16.20
2018-01-22T03:22:45.170Z,15.70
2018-01-22T03:25:12.787Z,16.70
2018-01-22T03:27:40.355Z,15.97
2018-01-22T03:30:08.550Z,17.10
2018-01-22T03:32:36.177Z,15.57
2018-01-22T03:35:03.863Z,16.37
2018-01-22T03:37:32.232Z,15.47
2018-01-22T03:39:59.803Z,16.20
2018-01-22T03:42:28.179Z,18.03
2018-01-22T03:44:56.532Z,16.80
2018-01-22T03:47:24.103Z,16.47
2018-01-22T03:49:51.709Z,16.80
2018-01-22T03:52:19.317Z,17.43
2018-01-22T03:54:46.874Z,17.40
2018-01-22T03:57:14.486Z,15.40
2018-01-22T03:59:42.427Z,16.33
2018-01-22T04:02:10.010Z,17.40
2018-01-22T04:04:37.629Z,19.43
2018-01-22T04:07:05.254Z,17.30
2018-01-22T04:09:33.047Z,18.53
2018-01-22T04:12:00.622Z,16.90
2018-01-22T04:14:28.972Z,17.47
2018-01-22T04:16:56.582Z,17.13
2018-01-22T04:19:24.217Z,18.33
2018-01-22T04:21:51.774Z,18.43
2018-01-22T04:24:21.364Z,16.30
2018-01-22T04:26:49.177Z,16.97
2018-01-22T04:29:16.993Z,16.83
2018-01-22T04:31:44.553Z,17.30
2018-01-22T04:34:12.119Z,16.40
2018-01-22T04:36:39.710Z,17.40
2018-01-22T04:39:07.270Z,17.97
2018-01-22T04:41:34.841Z,18.10
2018-01-22T04:44:03.216Z,16.53
2018-01-22T04:46:31.554Z,17.30
2018-01-22T04:48:59.135Z,18.07
2018-01-22T04:51:26.731Z,17.63
2018-01-22T04:53:54.266Z,19.63
2018-01-22T04:56:21.882Z,18.63
2018-01-22T04:58:49.438Z,18.37
2018-01-22T05:01:17.036Z,19.23
2018-01-22T05:03:44.615Z,19.10
2018-01-22T05:06:13.020Z,19.40
2018-01-22T05:08:40.604Z,20.03
2018-01-22T05:11:13.080Z,18.83
2018-01-22T05:13:40.677Z,19.50
2018-01-22T05:16:08.229Z,19.00
2018-01-22T05:18:35.797Z,19.60
2018-01-22T05:21:03.460Z,19.73
2018-01-22T05:23:31.022Z,20.43
2018-01-22T05:25:58.593Z,19.40
2018-01-22T05:28:26.195Z,19.43
2018-01-22T05:30:53.767Z,18.90
2018-01-22T05:33:21.331Z,18.60
2018-01-22T05:35:48.948Z,19.83
2018-01-22T05:38:17.287Z,18.97
2018-01-22T05:40:44.858Z,18.50
2018-01-22T05:43:12.430Z,21.70
2018-01-22T05:45:39.996Z,19.87
2018-01-22T05:48:07.560Z,19.40
2018-01-22T05:50:35.176Z,19.57
2018-01-22T05:53:03.541Z,20.20
2018-01-22T05:55:31.110Z,20.53
2018-01-22T05:57:58.691Z,20.50
2018-01-22T06:00:26.297Z,21.17
2018-01-22T06:02:53.907Z,19.30
2018-01-22T06:05:21.476Z,22.20
2018-01-22T06:07:49.088Z,20.47
2018-01-22T06:10:16.784Z,20.07
2018-01-22T06:12:44.306Z,21.80
2018-01-22T06:15:11.923Z,20.40
2018-01-22T06:17:39.594Z,19.97
2018-01-22T06:20:07.148Z,19.07
2018-01-22T06:22:34.743Z,20.40
2018-01-22T06:25:02.690Z,19.43
2018-01-22T06:27:31.106Z,19.20
2018-01-22T06:29:58.626Z,21.77
2018-01-22T06:32:26.296Z,20.40
2018-01-22T06:34:54.640Z,22.00
2018-01-22T06:37:22.980Z,19.90
2018-01-22T06:39:50.535Z,20.47
2018-01-22T06:42:18.156Z,20.50
2018-01-22T06:44:45.741Z,20.67
2018-01-22T06:47:13.343Z,20.23
2018-01-22T06:49:40.937Z,21.27
2018-01-22T06:52:08.509Z,21.63
2018-01-22T06:54:36.844Z,20.00
2018-01-22T06:57:04.455Z,20.33
2018-01-22T06:59:32.837Z,21.97
2018-01-22T07:02:01.137Z,20.07
2018-01-22T07:04:28.895Z,19.20
2018-01-22T07:06:56.470Z,19.27
2018-01-22T07:09:24.020Z,19.40
2018-01-22T07:11:51.614Z,20.63
2018-01-22T07:14:19.210Z,21.43
2018-01-22T07:16:47.945Z,21.30
2018-01-22T07:19:16.174Z,21.50
2018-01-22T07:21:44.502Z,21.67
2018-01-22T07:24:12.079Z,22.60
2018-01-22T07:26:39.636Z,19.23
2018-01-22T07:29:08.204Z,20.07
2018-01-22T07:31:35.858Z,19.83
2018-01-22T07:34:03.522Z,20.00
2018-01-22T07:36:31.077Z,20.90
2018-01-22T07:38:58.694Z,21.10
2018-01-22T07:41:26.283Z,20.07
2018-01-22T07:43:53.865Z,22.33
2018-01-22T07:46:21.411Z,23.20
2018-01-22T07:48:49.004Z,21.20
2018-01-22T07:51:17.110Z,21.27
2018-01-22T07:53:44.743Z,20.73
2018-01-22T07:56:12.295Z,20.80
2018-01-22T07:58:39.890Z,21.67
2018-01-22T08:01:07.456Z,23.27
2018-01-22T08:03:35.060Z,23.57
2018-01-22T08:06:02.633Z,21.77
2018-01-22T08:08:30.184Z,22.67
2018-01-22T08:10:57.825Z,21.10
2018-01-22T08:13:25.458Z,22.93
2018-01-22T08:15:53.777Z,21.77
2018-01-22T08:18:21.357Z,22.83
2018-01-22T08:20:48.896Z,21.90
2018-01-22T08:23:16.460Z,22.63
2018-01-22T08:25:44.082Z,21.50
2018-01-22T08:28:12.408Z,23.13
2018-01-22T08:30:40.031Z,24.23
2018-01-22T08:33:07.698Z,24.07
2018-01-22T08:35:35.327Z,22.73
2018-01-22T08:38:02.878Z,20.40
2018-01-22T08:40:30.458Z,23.50
2018-01-22T08:42:58.065Z,21.70
2018-01-22T08:45:25.639Z,22.60
2018-01-22T08:47:53.207Z,22.23
2018-01-22T08:50:20.884Z,23.20
2018-01-22T08:52:48.418Z,21.50
2018-01-22T08:55:16.004Z,22.30
2018-01-22T08:57:43.664Z,24.17
2018-01-22T09:00:11.204Z,23.00
2018-01-22T09:02:39.227Z,24.23
2018-01-22T09:05:06.872Z,49.97
2018-01-22T09:07:35.233Z,35.97
2018-01-22T09:10:02.780Z,27.07
2018-01-22T09:12:30.406Z,26.43
2018-01-22T09:14:57.950Z,24.47
2018-01-22T09:17:25.502Z,23.03
2018-01-22T09:19:53.123Z,22.93
2018-01-22T09:22:20.721Z,23.63
2018-01-22T09:24:48.250Z,22.50
2018-01-22T09:27:16.583Z,23.17
2018-01-22T09:29:44.157Z,23.70
2018-01-22T09:32:11.766Z,22.03
2018-01-22T09:34:39.996Z,21.17
2018-01-22T09:37:07.565Z,20.63
2018-01-22T09:39:35.140Z,20.90
2018-01-22T09:42:02.679Z,22.40
2018-01-22T09:44:30.267Z,23.10
2018-01-22T09:46:57.873Z,23.87
2018-01-22T09:49:25.461Z,41.33
2018-01-22T09:51:53.059Z,45.77
2018-01-22T09:54:20.672Z,27.57
2018-01-22T09:56:48.267Z,25.17
2018-01-22T09:59:16.608Z,22.47
2018-01-22T10:01:44.135Z,22.93
2018-01-22T10:04:12.494Z,23.10
2018-01-22T10:06:40.369Z,21.47
2018-01-22T10:09:08.799Z,23.40
2018-01-22T10:11:36.388Z,24.73
2018-01-22T10:14:05.459Z,22.87
2018-01-22T10:16:33.023Z,25.00
2018-01-22T10:19:00.611Z,25.97
2018-01-22T10:21:30.594Z,24.83
2018-01-22T10:23:58.249Z,24.07
2018-01-22T10:26:26.513Z,26.20
2018-01-22T10:28:54.058Z,24.67
2018-01-22T10:31:22.416Z,34.80
2018-01-22T10:33:50.014Z,32.50
2018-01-22T10:36:17.641Z,33.57
2018-01-22T10:38:45.235Z,26.83
2018-01-22T10:41:12.794Z,26.70
2018-01-22T10:43:40.784Z,24.13
2018-01-22T10:46:08.382Z,23.10
2018-01-22T10:48:35.977Z,23.83
2018-01-22T10:51:04.318Z,22.70
2018-01-22T10:53:31.905Z,21.07
2018-01-22T10:55:59.533Z,22.70
2018-01-22T10:58:27.087Z,23.40
2018-01-22T11:00:54.706Z,23.37
2018-01-22T11:03:22.613Z,22.53
2018-01-22T11:05:50.192Z,22.20
2018-01-22T11:08:17.743Z,23.30
2018-01-22T11:10:45.583Z,22.63
2018-01-22T11:13:13.877Z,22.87
2018-01-22T11:15:47.017Z,22.37
2018-01-22T11:18:17.766Z,22.63
2018-01-22T11:20:46.283Z,22.00
2018-01-22T11:23:14.274Z,22.43
2018-01-22T11:25:42.447Z,23.57
2018-01-22T11:28:12.183Z,27.60
2018-01-22T11:30:43.055Z,36.90
2018-01-22T11:33:12.274Z,29.50
2018-01-22T11:35:39.986Z,25.00
2018-01-22T11:38:07.552Z,24.23
2018-01-22T11:40:35.198Z,22.07
2018-01-22T11:43:02.807Z,23.53
2018-01-22T11:45:30.422Z,23.00
2018-01-22T11:47:59.278Z,24.73
2018-01-22T11:50:26.851Z,24.27
2018-01-22T11:52:54.410Z,22.53
2018-01-22T11:55:22.012Z,23.87
2018-01-22T11:57:49.570Z,24.20
2018-01-22T12:00:17.168Z,23.97
2018-01-22T12:02:44.770Z,24.90
2018-01-22T12:05:13.097Z,23.80
2018-01-22T12:07:41.161Z,24.67
2018-01-22T12:10:08.985Z,23.70
2018-01-22T12:12:37.339Z,26.70
2018-01-22T12:15:04.998Z,23.80
2018-01-22T12:17:32.586Z,22.47
2018-01-22T12:20:00.971Z,24.03
2018-01-22T12:22:29.386Z,23.87
2018-01-22T12:24:57.000Z,44.00
2018-01-22T12:27:27.166Z,37.00
2018-01-22T12:29:54.708Z,24.00
2018-01-22T12:32:22.334Z,22.30
2018-01-22T12:34:49.969Z,23.30
2018-01-22T12:37:17.582Z,22.50
2018-01-22T12:39:45.938Z,23.20
2018-01-22T12:42:13.614Z,21.37
2018-01-22T12:44:41.192Z,25.80
2018-01-22T12:47:08.854Z,22.53
2018-01-22T12:49:36.564Z,21.23
2018-01-22T12:52:04.509Z,20.37
2018-01-22T12:54:32.146Z,20.60
2018-01-22T12:56:59.796Z,21.00
2018-01-22T12:59:27.445Z,20.07
2018-01-22T13:01:54.972Z,19.43
2018-01-22T13:04:22.569Z,20.83
2018-01-22T13:06:50.167Z,19.10
2018-01-22T13:09:17.718Z,19.53
2018-01-22T13:11:45.434Z,21.27
2018-01-22T13:14:12.993Z,20.80
2018-01-22T13:16:40.636Z,19.63
2018-01-22T13:19:08.318Z,18.17
2018-01-22T13:21:35.891Z,17.80
2018-01-22T13:24:04.240Z,17.77
2018-01-22T13:26:31.795Z,17.70
2018-01-22T13:28:59.362Z,18.87
2018-01-22T13:31:27.073Z,17.30
2018-01-22T13:33:55.451Z,17.50
2018-01-22T13:36:23.834Z,16.90
2018-01-22T13:38:51.435Z,17.70
2018-01-22T13:41:19.012Z,16.50
2018-01-22T13:43:46.638Z,16.57
2018-01-22T13:46:14.222Z,18.20
2018-01-22T13:48:41.805Z,16.77
2018-01-22T13:51:09.521Z,17.60
2018-01-22T13:53:37.087Z,16.83
2018-01-22T13:56:05.056Z,17.47
2018-01-22T13:58:32.643Z,18.37
2018-01-22T14:01:00.177Z,17.97
2018-01-22T14:03:27.748Z,20.13
2018-01-22T14:05:55.399Z,18.70
2018-01-22T14:08:23.761Z,19.20
2018-01-22T14:10:51.296Z,19.27
2018-01-22T14:13:19.684Z,19.50
2018-01-22T14:15:47.287Z,19.23
2018-01-22T14:18:15.034Z,20.00
2018-01-22T14:20:42.593Z,19.50
2018-01-22T14:23:10.183Z,19.30
2018-01-22T14:25:37.728Z,19.50
2018-01-22T14:28:05.838Z,19.13
2018-01-22T14:30:33.425Z,19.27
2018-01-22T14:33:01.017Z,20.67
2018-01-22T14:35:28.646Z,20.63
2018-01-22T14:37:56.989Z,21.53
2018-01-22T14:40:24.570Z,19.90
2018-01-22T14:42:53.405Z,34.37
2018-01-22T14:45:21.012Z,34.17
2018-01-22T14:47:49.511Z,23.53
2018-01-22T14:50:17.828Z,20.77
2018-01-22T14:52:45.895Z,20.70
2018-01-22T14:55:13.630Z,20.13
2018-01-22T14:57:41.207Z,20.30
2018-01-22T15:00:08.874Z,20.70
2018-01-22T15:02:36.491Z,20.80
2018-01-22T15:05:04.216Z,20.33
2018-01-22T15:07:31.818Z,21.00
2018-01-22T15:09:59.913Z,21.20
2018-01-22T15:12:27.514Z,21.53
2018-01-22T15:14:55.283Z,21.83
2018-01-22T15:17:22.847Z,40.27
2018-01-22T15:19:50.570Z,37.63
2018-01-22T15:22:18.200Z,26.83
2018-01-22T15:24:46.550Z,23.27
2018-01-22T15:27:14.801Z,22.93
2018-01-22T15:29:42.406Z,23.97
2018-01-22T15:32:10.765Z,21.50
2018-01-22T15:34:38.473Z,22.53
2018-01-22T15:37:06.052Z,20.50
2018-01-22T15:39:33.681Z,21.80
2018-01-22T15:42:01.273Z,21.30
2018-01-22T15:44:29.768Z,21.80
2018-01-22T15:46:57.385Z,22.83
2018-01-22T15:49:25.911Z,21.53
2018-01-22T15:51:53.609Z,21.40
2018-01-22T15:54:22.137Z,22.03
2018-01-22T15:56:49.729Z,21.97
2018-01-22T15:59:17.334Z,21.10
2018-01-22T16:01:45.719Z,21.40
2018-01-22T16:04:13.365Z,21.57
2018-01-22T16:06:40.949Z,22.80
2018-01-22T16:09:08.595Z,23.93
2018-01-22T16:11:36.246Z,21.83
2018-01-22T16:14:04.562Z,23.80
2018-01-22T16:16:33.099Z,22.33
2018-01-22T16:19:00.698Z,22.20
2018-01-22T16:21:28.265Z,22.07
2018-01-22T16:23:55.848Z,21.20
2018-01-22T16:26:23.456Z,20.00
2018-01-22T16:28:51.015Z,20.63
2018-01-22T16:31:19.468Z,20.20
2018-01-22T16:33:47.080Z,20.87
2018-01-22T16:36:15.408Z,20.93
2018-01-22T16:38:42.995Z,21.07
2018-01-22T16:41:11.212Z,20.13
2018-01-22T16:43:38.795Z,21.23
2018-01-22T16:46:06.364Z,31.37
2018-01-22T16:48:33.946Z,34.83
2018-01-22T16:51:01.526Z,23.87
2018-01-22T16:53:29.122Z,22.90
2018-01-22T16:55:56.765Z,20.70
2018-01-22T16:58:24.407Z,21.33
2018-01-22T17:00:52.766Z,20.70
2018-01-22T17:03:20.672Z,20.77
2018-01-22T17:05:48.372Z,22.67
2018-01-22T17:08:16.154Z,19.77
2018-01-22T17:10:43.963Z,21.30
2018-01-22T17:13:11.603Z,19.47
2018-01-22T17:15:40.178Z,21.70
2018-01-22T17:18:08.096Z,20.80
2018-01-22T17:20:35.796Z,20.87
2018-01-22T17:23:04.010Z,20.20
2018-01-22T17:25:31.567Z,20.50
2018-01-22T17:27:59.929Z,20.37
2018-01-22T17:30:28.260Z,21.47
2018-01-22T17:32:55.837Z,21.10
2018-01-22T17:35:23.400Z,18.27
2018-01-22T17:37:50.957Z,20.07
2018-01-22T17:40:19.109Z,19.87
2018-01-22T17:42:46.692Z,20.83
2018-01-22T17:45:14.306Z,19.80
2018-01-22T17:47:41.897Z,20.90
2018-01-22T17:50:09.511Z,18.20
2018-01-22T17:52:37.900Z,20.33
2018-01-22T17:55:05.656Z,18.73
2018-01-22T17:57:33.288Z,19.23
2018-01-22T18:00:00.905Z,19.60
2018-01-22T18:02:28.488Z,18.20
2018-01-22T18:04:56.073Z,19.20
2018-01-22T18:07:23.664Z,17.90
2018-01-22T18:09:52.051Z,18.97
2018-01-22T18:12:19.633Z,17.90
2018-01-22T18:14:47.207Z,18.97
2018-01-22T18:17:15.658Z,20.00
2018-01-22T18:19:43.477Z,18.77
2018-01-22T18:22:11.874Z,20.33
2018-01-22T18:24:39.450Z,18.47
2018-01-22T18:27:07.843Z,20.23
2018-01-22T18:29:35.404Z,19.27
2018-01-22T18:32:03.095Z,18.60
2018-01-22T18:34:31.582Z,18.07
2018-01-22T18:36:59.152Z,18.00
2018-01-22T18:39:26.685Z,17.67
2018-01-22T18:41:54.271Z,18.20
2018-01-22T18:44:21.888Z,18.93
2018-01-22T18:46:49.460Z,20.10
2018-01-22T18:49:17.048Z,18.47
2018-01-22T18:51:44.602Z,19.20
2018-01-22T18:54:12.207Z,19.73
2018-01-22T18:56:39.771Z,19.57
2018-01-22T18:59:08.096Z,18.07
2018-01-22T19:01:35.685Z,19.03
2018-01-22T19:04:04.126Z,19.63
2018-01-22T19:06:31.837Z,18.07
2018-01-22T19:09:00.234Z,20.00
2018-01-22T19:11:27.925Z,19.87
2018-01-22T19:13:55.546Z,20.00
2018-01-22T19:16:23.924Z,19.53
2018-01-22T19:18:52.452Z,19.70
2018-01-22T19:21:20.257Z,20.77
2018-01-22T19:23:47.812Z,20.10
2018-01-22T19:26:15.478Z,20.20
2018-01-22T19:28:43.037Z,19.60
2018-01-22T19:31:10.608Z,19.87
2018-01-22T19:33:38.222Z,57.37
2018-01-22T19:36:05.814Z,41.80
2018-01-22T19:38:33.501Z,25.80
2018-01-22T19:41:01.036Z,20.97
2018-01-22T19:43:28.999Z,21.63
2018-01-22T19:45:56.649Z,22.77
2018-01-22T19:48:24.741Z,21.60
2018-01-22T19:50:52.374Z,21.40
2018-01-22T19:53:20.163Z,21.30
2018-01-22T19:55:47.919Z,20.80
2018-01-22T19:58:17.275Z,20.07
2018-01-22T20:00:44.898Z,20.27
2018-01-22T20:03:14.001Z,19.40
2018-01-22T20:05:41.705Z,19.90
2018-01-22T20:08:10.006Z,19.33
2018-01-22T20:10:37.584Z,19.27
2018-01-22T20:13:05.188Z,20.73
2018-01-22T20:15:32.798Z,21.27
2018-01-22T20:18:01.153Z,19.93
2018-01-22T20:20:28.769Z,19.73
2018-01-22T20:22:56.389Z,19.90
2018-01-22T20:25:23.965Z,23.30
2018-01-22T20:27:51.594Z,20.13
2018-01-22T20:30:19.267Z,19.20
2018-01-22T20:32:46.891Z,20.33
2018-01-22T20:35:15.146Z,18.63
2018-01-22T20:37:43.018Z,19.80
2018-01-22T20:40:10.684Z,20.30
2018-01-22T20:42:39.062Z,20.27
2018-01-22T20:45:07.455Z,19.03
2018-01-22T20:47:35.769Z,18.97
2018-01-22T20:50:03.416Z,19.63
2018-01-22T20:52:30.970Z,20.40
2018-01-22T20:54:58.559Z,20.83
2018-01-22T20:57:26.112Z,18.97
2018-01-22T20:59:53.653Z,20.93
2018-01-22T21:02:21.434Z,19.53
2018-01-22T21:04:49.025Z,19.60
2018-01-22T21:07:16.604Z,20.57
2018-01-22T21:09:44.129Z,21.00
2018-01-22T21:12:11.692Z,21.73
2018-01-22T21:14:40.092Z,21.53
2018-01-22T21:17:07.623Z,21.70
2018-01-22T21:19:35.211Z,23.40
2018-01-22T21:22:03.325Z,23.57
2018-01-22T21:24:30.862Z,24.13
2018-01-22T21:26:58.440Z,22.83
2018-01-22T21:29:26.800Z,21.63
2018-01-22T21:31:55.292Z,20.77
2018-01-22T21:34:22.883Z,22.50
2018-01-22T21:36:50.532Z,22.87
2018-01-22T21:39:18.170Z,21.20
2018-01-22T21:41:45.741Z,23.07
2018-01-22T21:44:13.531Z,23.67
2018-01-22T21:46:41.228Z,23.53
2018-01-22T21:49:09.139Z,23.03
2018-01-22T21:51:36.706Z,34.67
2018-01-22T21:54:04.556Z,45.50
2018-01-22T21:56:32.188Z,29.80
2018-01-22T21:58:59.775Z,26.53
2018-01-22T22:01:28.185Z,23.60
2018-01-22T22:03:55.880Z,23.63
2018-01-22T22:06:23.677Z,23.77
2018-01-22T22:08:51.340Z,24.20
2018-01-22T22:11:19.696Z,23.23
2018-01-22T22:13:47.250Z,21.30
2018-01-22T22:16:14.821Z,24.53
2018-01-22T22:18:42.414Z,23.80
2018-01-22T22:21:10.030Z,23.93
2018-01-22T22:23:37.688Z,23.77
2018-01-22T22:26:06.101Z,25.13
2018-01-22T22:28:35.094Z,24.03
2018-01-22T22:31:02.833Z,24.77
2018-01-22T22:33:30.466Z,24.20
2018-01-22T22:35:58.026Z,22.90
2018-01-22T22:38:25.649Z,27.20
2018-01-22T22:40:53.953Z,24.83
2018-01-22T22:43:21.591Z,24.47
2018-01-22T22:45:49.274Z,22.83
2018-01-22T22:48:16.998Z,23.93
2018-01-22T22:50:44.666Z,24.93
2018-01-22T22:53:12.241Z,25.17
2018-01-22T22:55:40.705Z,24.43
2018-01-22T22:58:09.089Z,25.33
2018-01-22T23:00:37.452Z,24.70
2018-01-22T23:03:05.028Z,23.70
2018-01-22T23:05:33.380Z,25.50
2018-01-22T23:08:01.005Z,25.73
2018-01-22T23:10:28.614Z,25.80
2018-01-22T23:12:57.149Z,24.90
2018-01-22T23:15:24.737Z,26.60
2018-01-22T23:17:52.319Z,26.23
2018-01-22T23:20:19.870Z,26.10
2018-01-22T23:22:48.363Z,26.87
2018-01-22T23:25:16.714Z,26.20
2018-01-22T23:27:45.152Z,26.07
2018-01-22T23:30:12.787Z,25.93
2018-01-22T23:32:40.368Z,27.53
2018-01-22T23:35:08.653Z,26.80
2018-01-22T23:37:37.379Z,26.30
2018-01-22T23:40:05.040Z,25.60
2018-01-22T23:42:32.687Z,26.07
2018-01-22T23:45:00.312Z,26.40
2018-01-22T23:47:28.693Z,25.33
2018-01-22T23:49:56.458Z,26.77
2018-01-22T23:52:24.755Z,27.80
2018-01-22T23:54:52.309Z,28.87
2018-01-22T23:57:19.946Z,25.90
2018-01-22T23:59:48.296Z,26.07
